Time;durP1;ratioP1;P1;durP2;ratioP2;P2;SDS_P1;SDS_P2;PMS_P1;PMS_P2;Temp;Humidity;BMP_temperature;BMP_pressure;BME280_temperature;BME280_humidity;BME280_pressure;Samples;Min_cycle;Max_cycle;Signal;HPM_P1;HPM_P2
2021/06/23 00:00:32;;;;;;;32.15;12.77;;;;;;;26.31;57.49;99228.16;5049910;28;20048;-76
2021/06/23 00:02:58;;;;;;;27.55;12.73;;;;;;;26.37;57.29;99240.69;5051538;28;20115;-76
2021/06/23 00:05:23;;;;;;;38.13;11.57;;;;;;;26.35;57.34;99238.25;5051048;28;20090;-79
2021/06/23 00:07:50;;;;;;;23.02;12.50;;;;;;;26.31;57.25;99239.63;5049236;28;20409;-79
2021/06/23 00:10:16;;;;;;;30.38;12.93;;;;;;;26.14;57.63;99233.84;5049907;28;20469;-77
2021/06/23 00:12:42;;;;;;;25.10;11.27;;;;;;;26.11;57.61;99233.94;5046459;28;20033;-77
2021/06/23 00:15:12;;;;;;;33.38;12.63;;;;;;;26.05;58.07;99237.34;5042967;28;20041;-79
2021/06/23 00:17:37;;;;;;;27.92;12.15;;;;;;;25.99;57.88;99230.53;5050807;28;20033;-79
2021/06/23 00:20:04;;;;;;;21.95;10.80;;;;;;;25.84;58.47;99232.97;5049858;28;20053;-80
2021/06/23 00:22:29;;;;;;;21.33;11.23;;;;;;;25.80;58.33;99229.38;5049582;28;20060;-79
2021/06/23 00:24:55;;;;;;;30.45;11.75;;;;;;;25.76;58.23;99234.38;5051020;28;20067;-76
2021/06/23 00:27:21;;;;;;;28.15;12.43;;;;;;;25.46;59.32;99228.47;5050767;28;20017;-79
2021/06/23 00:29:46;;;;;;;26.60;12.40;;;;;;;25.22;59.80;99237.19;5049654;28;20407;-79
2021/06/23 00:32:14;;;;;;;36.20;13.43;;;;;;;25.04;60.78;99237.56;5050749;28;20056;-80
2021/06/23 00:34:39;;;;;;;33.55;12.93;;;;;;;25.12;60.35;99241.06;5050707;28;20498;-79
2021/06/23 00:37:05;;;;;;;35.75;14.27;;;;;;;25.04;60.49;99234.69;5050975;28;20100;-79
2021/06/23 00:39:31;;;;;;;28.40;13.35;;;;;;;25.02;60.30;99242.91;5051108;28;20037;-76
2021/06/23 00:41:57;;;;;;;28.58;11.95;;;;;;;24.91;60.54;99231.69;5050534;28;20456;-76
2021/06/23 00:44:23;;;;;;;27.88;13.02;;;;;;;24.99;60.33;99251.56;5051115;28;20123;-76
2021/06/23 00:46:49;;;;;;;40.45;12.88;;;;;;;24.87;60.73;99241.59;5050481;28;20025;-78
2021/06/23 00:49:15;;;;;;;36.90;13.55;;;;;;;24.90;60.71;99238.66;5051017;28;20512;-76
2021/06/23 00:51:41;;;;;;;35.20;14.10;;;;;;;25.05;60.86;99244.88;5050321;28;20037;-78
2021/06/23 00:54:11;;;;;;;30.95;14.63;;;;;;;24.89;61.28;99241.97;5049401;28;20025;-76
2021/06/23 00:56:38;;;;;;;30.48;13.20;;;;;;;24.79;61.49;99236.00;5050431;28;20048;-76
2021/06/23 00:59:05;;;;;;;27.80;14.60;;;;;;;24.83;61.72;99240.84;5050091;28;20483;-79
2021/06/23 01:01:33;;;;;;;30.35;12.90;;;;;;;24.87;61.03;99235.88;5050356;28;20032;-76
2021/06/23 01:04:00;;;;;;;26.65;12.35;;;;;;;24.94;60.88;99239.41;5050422;28;20025;-79
2021/06/23 01:06:25;;;;;;;27.00;13.27;;;;;;;24.83;61.45;99235.94;5049017;28;20056;-76
2021/06/23 01:08:52;;;;;;;28.08;12.43;;;;;;;24.85;61.54;99238.34;5050245;28;20071;-79
2021/06/23 01:11:20;;;;;;;24.48;11.82;;;;;;;24.72;61.29;99238.19;5048959;28;20033;-79
2021/06/23 01:14:05;;;;;;;33.72;12.25;;;;;;;24.76;61.52;99239.72;5050436;28;20112;-77
2021/06/23 01:16:34;;;;;;;27.58;11.25;;;;;;;24.66;61.87;99240.75;5050178;28;20025;-79
2021/06/23 01:19:06;;;;;;;33.30;13.55;;;;;;;24.59;62.08;99241.69;5049660;28;20049;-79
2021/06/23 01:21:31;;;;;;;30.85;11.65;;;;;;;24.62;61.78;99246.53;5044243;28;20064;-76
2021/06/23 01:23:57;;;;;;;27.10;11.05;;;;;;;24.78;61.16;99236.44;5049551;28;20119;-79
2021/06/23 01:26:23;;;;;;;27.80;11.95;;;;;;;24.89;61.09;99230.53;5048659;28;20490;-76
2021/06/23 01:28:49;;;;;;;28.88;11.57;;;;;;;24.87;60.88;99221.59;5050403;28;20504;-76
2021/06/23 01:31:15;;;;;;;27.65;11.50;;;;;;;24.94;60.83;99236.53;5045307;28;20033;-79
2021/06/23 01:33:41;;;;;;;36.70;11.57;;;;;;;24.84;61.13;99216.72;5047709;28;20125;-76
2021/06/23 01:36:07;;;;;;;29.40;12.02;;;;;;;24.91;60.92;99240.25;5049866;28;20107;-76
2021/06/23 01:38:32;;;;;;;24.27;11.70;;;;;;;24.84;61.20;99236.75;5046742;28;20516;-79
2021/06/23 01:40:58;;;;;;;34.88;12.55;;;;;;;24.78;61.30;99231.53;5049947;28;20128;-76
2021/06/23 01:43:24;;;;;;;30.95;12.60;;;;;;;24.76;61.08;99234.00;5048607;28;20029;-76
2021/06/23 01:45:51;;;;;;;45.67;12.50;;;;;;;24.78;61.18;99237.25;5049679;28;20116;-76
2021/06/23 01:48:23;;;;;;;31.83;13.88;;;;;;;24.87;60.92;99245.25;5050026;28;20033;-77
2021/06/23 01:50:57;;;;;;;22.45;11.45;;;;;;;24.79;61.02;99238.88;5049743;28;20040;-80
2021/06/23 01:53:23;;;;;;;28.70;11.77;;;;;;;24.77;61.12;99243.41;5050062;28;20060;-80
2021/06/23 01:55:50;;;;;;;28.75;12.25;;;;;;;24.85;60.92;99246.94;5049591;28;20120;-79
2021/06/23 01:58:17;;;;;;;35.80;12.18;;;;;;;24.75;61.21;99251.59;5050079;28;20556;-76
2021/06/23 02:00:52;;;;;;;29.58;12.13;;;;;;;24.68;61.46;99253.38;5048269;28;20029;-77
2021/06/23 02:03:31;;;;;;;35.53;11.88;;;;;;;24.51;62.00;99243.88;5050137;28;20033;-76
2021/06/23 02:06:41;;;;;;;25.55;12.43;;;;;;;24.61;61.79;99244.09;5049486;28;20035;-76
2021/06/23 02:09:25;;;;;;;22.40;11.23;;;;;;;24.46;62.25;99246.44;5044196;28;20396;-76
2021/06/23 02:12:10;;;;;;;27.92;12.13;;;;;;;24.31;62.48;99248.72;5048698;28;20069;-78
2021/06/23 02:14:40;;;;;;;31.13;12.93;;;;;;;23.97;63.73;99245.56;5045170;28;20026;-76
2021/06/23 02:17:08;;;;;;;27.98;12.98;;;;;;;23.92;63.37;99234.66;5039918;28;20116;-77
2021/06/23 02:19:53;;;;;;;28.30;12.82;;;;;;;24.05;63.40;99249.13;5049360;28;20053;-76
2021/06/23 02:22:19;;;;;;;34.80;11.63;;;;;;;24.05;63.17;99242.63;5048221;28;20021;-76
2021/06/23 02:24:45;;;;;;;30.95;11.60;;;;;;;24.02;63.27;99234.91;5049444;28;20025;-79
2021/06/23 02:27:13;;;;;;;33.42;12.57;;;;;;;23.91;63.72;99237.94;5049507;28;20476;-79
2021/06/23 02:29:39;;;;;;;38.80;12.50;;;;;;;23.87;63.90;99242.91;5049980;28;20441;-79
2021/06/23 02:32:06;;;;;;;32.22;12.68;;;;;;;23.79;64.00;99234.44;5053147;28;20021;-79
2021/06/23 02:34:32;;;;;;;44.10;12.23;;;;;;;23.77;63.86;99248.34;5053585;28;20033;-77
2021/06/23 02:37:00;;;;;;;37.25;12.07;;;;;;;23.88;64.63;99268.13;5052898;28;20074;-80
2021/06/23 02:39:25;;;;;;;32.28;11.80;;;;;;;24.11;63.90;99269.44;5051992;28;20453;-80
2021/06/23 02:41:51;;;;;;;26.48;10.88;;;;;;;24.27;63.05;99256.56;5037757;28;20104;-80
2021/06/23 02:44:18;;;;;;;32.65;11.77;;;;;;;24.38;62.38;99262.91;5034402;28;20384;-80
2021/06/23 02:46:43;;;;;;;38.38;11.82;;;;;;;24.42;62.32;99262.81;5034747;28;20040;-79
2021/06/23 02:49:09;;;;;;;34.47;11.60;;;;;;;24.56;62.37;99262.56;5047245;28;20030;-80
2021/06/23 02:51:39;;;;;;;26.38;11.52;;;;;;;24.64;61.74;99261.19;5033743;28;20048;-81
2021/06/23 02:54:06;;;;;;;35.60;11.98;;;;;;;24.58;60.93;99262.13;5051787;28;20037;-78
2021/06/23 02:56:32;;;;;;;31.48;12.02;;;;;;;24.43;61.65;99275.84;5051887;28;20060;-80
2021/06/23 02:58:59;;;;;;;26.40;11.48;;;;;;;24.46;62.37;99272.94;5051159;28;20040;-80
2021/06/23 03:01:25;;;;;;;23.85;11.27;;;;;;;24.61;61.76;99289.81;5049467;28;20108;-81
2021/06/23 03:03:50;;;;;;;24.33;11.15;;;;;;;24.77;61.07;99289.16;5041199;28;20128;-81
2021/06/23 03:06:17;;;;;;;24.90;11.30;;;;;;;24.51;61.26;99283.88;5047791;28;20033;-78
2021/06/23 03:08:42;;;;;;;29.83;11.27;;;;;;;24.64;60.71;99295.50;5049185;28;20098;-80
2021/06/23 03:11:08;;;;;;;34.95;12.07;;;;;;;24.54;60.53;99288.72;5038247;28;20025;-78
2021/06/23 03:13:34;;;;;;;40.38;11.93;;;;;;;24.40;61.98;99291.84;5047881;28;20038;-78
2021/06/23 03:16:00;;;;;;;30.02;11.27;;;;;;;24.51;61.67;99291.66;5048375;28;20021;-75
2021/06/23 03:18:28;;;;;;;29.05;10.75;;;;;;;24.50;61.43;99285.13;5050830;28;20045;-73
2021/06/23 03:20:54;;;;;;;39.08;12.00;;;;;;;24.56;61.16;99290.34;5049583;28;20104;-74
2021/06/23 03:23:19;;;;;;;28.70;10.75;;;;;;;24.42;61.30;99288.53;5049713;28;20059;-78
2021/06/23 03:25:47;;;;;;;39.60;12.05;;;;;;;24.21;61.61;99291.31;5047282;28;20573;-82
2021/06/23 03:28:13;;;;;;;28.33;11.75;;;;;;;24.12;62.26;99299.63;5045337;28;20463;-74
2021/06/23 03:30:39;;;;;;;40.78;11.30;;;;;;;24.00;62.66;99295.31;5047358;28;20026;-81
2021/06/23 03:33:05;;;;;;;26.85;11.40;;;;;;;23.75;63.29;99289.97;5031500;28;20053;-76
2021/06/23 03:35:30;;;;;;;31.77;12.40;;;;;;;23.61;63.82;99297.50;5047480;28;20550;-70
2021/06/23 03:37:56;;;;;;;45.75;15.10;;;;;;;23.52;64.13;99305.78;5045096;28;20138;-76
2021/06/23 03:40:23;;;;;;;41.33;14.82;;;;;;;23.44;64.40;99301.41;5051522;28;20024;-72
2021/06/23 03:42:49;;;;;;;39.55;13.38;;;;;;;23.35;64.79;99314.16;5051908;28;20059;-76
2021/06/23 03:45:15;;;;;;;38.35;12.95;;;;;;;23.27;65.45;99304.06;5051661;28;20032;-76
2021/06/23 03:47:41;;;;;;;37.28;14.73;;;;;;;23.12;65.61;99303.41;5051828;28;20036;-72
2021/06/23 03:50:08;;;;;;;39.72;12.95;;;;;;;23.13;65.88;99300.09;5048798;28;20029;-77
2021/06/23 03:52:35;;;;;;;23.48;11.38;;;;;;;23.20;65.97;99304.13;5050232;28;20040;-72
2021/06/23 03:55:00;;;;;;;35.67;13.18;;;;;;;23.17;65.74;99307.81;5050228;28;20025;-77
2021/06/23 03:57:27;;;;;;;41.72;15.70;;;;;;;23.22;65.58;99308.16;5049068;28;20096;-77
2021/06/23 03:59:53;;;;;;;44.78;13.68;;;;;;;23.40;65.01;99305.09;5049186;28;20041;-72
2021/06/23 04:02:19;;;;;;;34.50;14.88;;;;;;;23.65;64.60;99312.56;5045559;28;20106;-77
2021/06/23 04:04:45;;;;;;;35.28;14.88;;;;;;;23.67;63.61;99312.09;5037350;28;20551;-73
2021/06/23 04:07:12;;;;;;;37.22;12.57;;;;;;;23.62;63.90;99319.09;5038521;28;20022;-73
2021/06/23 04:09:38;;;;;;;42.00;15.27;;;;;;;23.61;64.32;99303.22;5049225;28;20435;-77
2021/06/23 04:12:04;;;;;;;33.97;13.68;;;;;;;23.61;64.05;99308.91;5051280;28;20086;-72
2021/06/23 04:14:30;;;;;;;40.75;16.67;;;;;;;23.51;64.45;99304.16;5051494;28;20090;-72
2021/06/23 04:16:56;;;;;;;51.83;15.98;;;;;;;23.54;64.91;99311.88;5051174;28;20052;-76
2021/06/23 04:19:22;;;;;;;34.60;14.75;;;;;;;23.57;64.87;99313.88;5051078;28;20102;-76
2021/06/23 04:21:48;;;;;;;34.92;13.77;;;;;;;23.66;64.85;99308.44;5049761;28;20064;-72
2021/06/23 04:24:14;;;;;;;43.90;17.13;;;;;;;23.69;64.97;99310.44;5051303;28;20123;-76
2021/06/23 04:26:40;;;;;;;34.00;13.65;;;;;;;23.72;64.52;99313.66;5051081;28;20398;-72
2021/06/23 04:29:05;;;;;;;45.35;15.80;;;;;;;23.87;64.87;99315.06;5046506;28;20487;-75
2021/06/23 04:31:32;;;;;;;27.50;11.85;;;;;;;23.88;64.56;99324.47;5050442;28;20043;-75
2021/06/23 04:33:57;;;;;;;40.67;14.65;;;;;;;23.73;64.94;99329.56;5051262;28;20037;-73
2021/06/23 04:36:23;;;;;;;27.65;13.85;;;;;;;23.73;65.07;99329.56;5049454;28;20116;-75
2021/06/23 04:38:48;;;;;;;31.95;13.73;;;;;;;23.78;65.31;99324.19;5050851;28;20086;-72
2021/06/23 04:41:14;;;;;;;39.42;14.65;;;;;;;23.83;65.20;99328.59;5046009;28;20524;-75
2021/06/23 04:43:39;;;;;;;42.72;14.82;;;;;;;23.76;65.37;99326.66;5048771;28;20025;-74
2021/06/23 04:46:05;;;;;;;45.20;14.43;;;;;;;23.90;65.19;99328.50;5049333;28;20545;-76
2021/06/23 04:48:32;;;;;;;35.47;15.00;;;;;;;23.91;64.97;99329.31;5050395;28;20075;-72
2021/06/23 04:50:58;;;;;;;34.05;16.70;;;;;;;23.88;64.97;99322.41;5050448;28;20037;-76
2021/06/23 04:53:24;;;;;;;42.72;16.17;;;;;;;23.97;65.28;99327.59;5050344;28;20028;-76
2021/06/23 04:55:55;;;;;;;34.92;15.18;;;;;;;23.91;65.30;99332.97;5050209;28;20052;-73
2021/06/23 04:58:21;;;;;;;47.88;15.95;;;;;;;24.03;65.47;99334.47;5046153;28;20380;-73
2021/06/23 05:00:46;;;;;;;35.53;15.68;;;;;;;24.10;64.94;99331.50;5049059;28;20419;-73
2021/06/23 05:03:12;;;;;;;58.63;14.68;;;;;;;24.18;64.93;99339.94;5050631;28;20025;-76
2021/06/23 05:05:39;;;;;;;46.05;14.90;;;;;;;24.14;64.67;99344.91;5050183;28;20196;-73
2021/06/23 05:08:05;;;;;;;39.17;14.05;;;;;;;24.23;64.27;99340.25;5050467;28;20082;-73
2021/06/23 05:10:31;;;;;;;36.72;14.60;;;;;;;24.38;63.79;99354.34;5050320;28;20028;-73
2021/06/23 05:12:56;;;;;;;34.42;15.57;;;;;;;24.53;63.35;99352.84;5050441;28;20446;-77
2021/06/23 05:15:22;;;;;;;63.28;16.55;;;;;;;24.57;63.21;99346.28;5049120;28;20040;-73
2021/06/23 05:17:48;;;;;;;53.90;16.90;;;;;;;24.80;62.61;99352.00;5048855;28;20541;-73
2021/06/23 05:20:14;;;;;;;43.75;14.55;;;;;;;24.90;62.39;99353.06;5045671;28;20115;-72
2021/06/23 05:22:40;;;;;;;46.67;13.98;;;;;;;24.97;61.76;99360.69;5045250;28;20041;-74
2021/06/23 05:25:06;;;;;;;44.13;14.77;;;;;;;25.12;61.33;99351.84;5047640;28;20040;-72
2021/06/23 05:27:32;;;;;;;43.17;14.45;;;;;;;25.27;61.01;99352.38;5046092;28;20056;-76
2021/06/23 05:29:57;;;;;;;30.55;12.82;;;;;;;25.54;59.19;99352.25;5037959;28;20029;-72
2021/06/23 05:32:23;;;;;;;48.97;13.65;;;;;;;25.71;58.47;99349.47;5048161;28;20028;-79
2021/06/23 05:34:48;;;;;;;44.65;13.18;;;;;;;25.86;57.63;99344.22;5050023;28;20487;-79
2021/06/23 05:37:14;;;;;;;39.65;12.63;;;;;;;25.97;56.91;99350.50;5047907;28;20419;-73
2021/06/23 05:39:39;;;;;;;66.82;15.65;;;;;;;25.84;57.45;99347.53;5043599;28;20139;-75
2021/06/23 05:42:05;;;;;;;48.15;13.23;;;;;;;25.92;57.90;99359.63;5046325;28;20017;-75
2021/06/23 05:44:30;;;;;;;41.35;12.77;;;;;;;26.03;57.80;99353.66;5048113;28;20029;-73
2021/06/23 05:46:56;;;;;;;43.63;13.20;;;;;;;26.07;58.13;99345.78;5044227;28;20431;-74
2021/06/23 05:49:22;;;;;;;45.50;13.70;;;;;;;26.14;57.16;99348.47;5046307;28;20033;-76
2021/06/23 05:51:47;;;;;;;33.63;13.18;;;;;;;26.32;57.54;99353.03;5042855;28;20029;-78
2021/06/23 05:54:13;;;;;;;46.20;14.43;;;;;;;26.41;57.10;99350.31;5045941;28;20036;-77
2021/06/23 05:56:38;;;;;;;56.33;14.15;;;;;;;26.65;55.44;99355.88;5042889;28;20033;-74
2021/06/23 05:59:04;;;;;;;58.63;16.45;;;;;;;26.77;54.21;99349.41;5042742;28;20060;-76
2021/06/23 06:01:30;;;;;;;40.72;12.65;;;;;;;26.84;53.78;99359.09;5043242;28;20025;-78
2021/06/23 06:03:56;;;;;;;58.97;15.02;;;;;;;26.96;54.03;99354.69;5041602;28;20045;-75
2021/06/23 06:06:21;;;;;;;40.95;12.25;;;;;;;27.07;54.17;99358.06;5048614;28;20017;-74
2021/06/23 06:08:47;;;;;;;43.25;12.10;;;;;;;27.16;54.01;99354.59;5045688;28;20116;-80
2021/06/23 06:11:13;;;;;;;39.80;13.88;;;;;;;27.30;54.02;99356.22;5049834;28;20089;-77
2021/06/23 06:13:38;;;;;;;92.30;44.53;;;;;;;27.39;54.08;99361.31;5050374;28;20040;-73
2021/06/23 06:16:04;;;;;;;48.30;14.50;;;;;;;27.52;52.40;99353.56;5049622;28;20029;-74
2021/06/23 06:18:29;;;;;;;55.25;23.42;;;;;;;27.59;53.40;99356.22;5050977;28;20045;-74
2021/06/23 06:20:57;;;;;;;43.05;15.45;;;;;;;27.72;53.68;99362.00;5048321;28;20022;-74
2021/06/23 06:23:22;;;;;;;33.40;13.65;;;;;;;27.73;53.26;99362.81;5049813;28;20044;-79
2021/06/23 06:25:48;;;;;;;41.72;13.18;;;;;;;27.80;53.70;99359.72;5047005;28;20083;-82
2021/06/23 06:28:14;;;;;;;40.83;12.75;;;;;;;27.89;52.93;99353.28;5050934;28;20040;-84
2021/06/23 06:30:39;;;;;;;44.50;12.88;;;;;;;28.21;52.60;99360.13;5048392;28;20489;-72
2021/06/23 06:33:06;;;;;;;43.83;12.77;;;;;;;28.31;52.63;99355.28;5047815;28;20029;-74
2021/06/23 06:35:32;;;;;;;52.63;17.08;;;;;;;28.23;53.55;99354.72;5052060;28;20025;-71
2021/06/23 06:37:57;;;;;;;39.10;11.32;;;;;;;28.56;51.36;99348.72;5053091;28;20422;-73
2021/06/23 06:40:23;;;;;;;42.20;13.90;;;;;;;28.66;50.84;99351.69;5052945;28;20017;-82
2021/06/23 06:42:49;;;;;;;49.47;14.00;;;;;;;28.67;49.51;99353.31;5053197;28;20041;-84
2021/06/23 06:45:15;;;;;;;38.00;11.85;;;;;;;28.81;51.36;99352.00;5051562;28;20600;-75
2021/06/23 06:47:40;;;;;;;43.25;13.55;;;;;;;28.82;50.27;99351.56;5052989;28;20086;-77
2021/06/23 06:50:07;;;;;;;40.67;12.93;;;;;;;29.10;49.00;99357.56;5052857;28;20400;-81
2021/06/23 06:52:32;;;;;;;47.63;12.70;;;;;;;28.97;50.45;99351.06;5048225;28;20108;-77
2021/06/23 06:54:58;;;;;;;38.50;11.48;;;;;;;29.12;49.92;99346.38;5045598;28;20483;-77
2021/06/23 06:57:23;;;;;;;41.47;12.10;;;;;;;29.40;49.02;99340.88;5052542;28;20147;-77
2021/06/23 06:59:52;;;;;;;47.75;13.23;;;;;;;29.58;48.43;99341.50;5052752;28;20424;-76
2021/06/23 07:02:17;;;;;;;40.33;12.52;;;;;;;29.63;49.74;99335.94;5052345;28;20443;-78
2021/06/23 07:04:42;;;;;;;40.67;11.48;;;;;;;29.80;44.87;99350.88;5052704;28;20113;-77
2021/06/23 07:07:08;;;;;;;45.33;11.00;;;;;;;29.84;45.69;99337.16;5052739;28;20056;-80
2021/06/23 07:09:33;;;;;;;39.10;9.70;;;;;;;29.88;45.13;99342.78;5053048;28;20098;-84
2021/06/23 07:11:59;;;;;;;34.63;10.52;;;;;;;30.07;44.12;99334.25;5040904;28;20025;-78
2021/06/23 07:14:24;;;;;;;40.13;10.40;;;;;;;30.13;44.69;99338.13;5045251;28;20028;-77
2021/06/23 07:16:50;;;;;;;40.05;10.52;;;;;;;30.02;43.86;99338.50;5049003;28;20025;-74
2021/06/23 07:19:15;;;;;;;54.92;11.48;;;;;;;30.25;44.15;99336.41;5047952;28;20053;-78
2021/06/23 07:21:42;;;;;;;41.83;11.13;;;;;;;30.38;43.14;99331.31;5047337;28;20116;-79
2021/06/23 07:24:08;;;;;;;33.80;9.43;;;;;;;30.52;42.32;99323.31;5041573;28;20108;-82
2021/06/23 07:26:33;;;;;;;37.75;11.23;;;;;;;30.65;43.24;99331.91;5047572;28;20037;-84
2021/06/23 07:29:03;;;;;;;40.38;10.23;;;;;;;30.86;42.53;99327.25;5049722;28;20036;-86
2021/06/23 07:36:37;;;;;;;59.30;11.75;;;;;;;31.20;41.84;99336.13;5051759;28;20040;-78
2021/06/23 07:39:09;;;;;;;40.05;10.32;;;;;;;31.26;41.90;99330.53;5051967;28;20025;-83
2021/06/23 07:41:39;;;;;;;57.60;11.85;;;;;;;31.37;42.77;99334.50;5051471;28;20057;-77
2021/06/23 07:44:05;;;;;;;55.53;10.55;;;;;;;31.46;41.49;99327.91;5051970;28;20471;-80
2021/06/23 07:46:36;;;;;;;43.15;10.23;;;;;;;31.48;42.28;99331.13;5051395;28;20025;-73
2021/06/23 07:49:02;;;;;;;47.25;10.38;;;;;;;31.63;41.75;99331.25;5050989;28;20475;-73
2021/06/23 07:51:33;;;;;;;49.55;10.63;;;;;;;31.75;41.70;99328.66;5051284;28;20029;-73
2021/06/23 07:54:11;;;;;;;37.42;9.63;;;;;;;31.81;40.53;99331.72;5051664;28;20072;-73
2021/06/23 08:10:11;;;;;;;47.13;10.45;;;;;;;32.39;38.06;99328.94;5023119;28;20053;-75
2021/06/23 08:12:54;;;;;;;39.63;13.30;;;;;;;32.47;37.94;99333.88;5031326;28;20048;-74
2021/06/23 08:15:24;;;;;;;48.90;10.65;;;;;;;32.43;36.94;99341.13;5031198;28;20033;-75
2021/06/23 08:17:50;;;;;;;46.97;11.75;;;;;;;32.49;38.23;99344.97;5031083;28;20040;-74
2021/06/23 08:20:15;;;;;;;39.30;11.38;;;;;;;32.46;38.09;99343.84;5030102;28;20435;-75
2021/06/23 08:22:41;;;;;;;38.13;8.15;;;;;;;32.55;35.16;99340.09;5029245;28;20089;-75
2021/06/23 08:25:07;;;;;;;37.72;8.35;;;;;;;32.71;35.14;99333.09;5030246;28;20052;-74
2021/06/23 08:27:33;;;;;;;52.95;9.88;;;;;;;32.87;35.66;99339.72;5046741;28;21135;-75
2021/06/23 08:29:58;;;;;;;47.85;8.52;;;;;;;32.98;36.23;99324.72;5049293;28;20123;-74
2021/06/23 08:32:24;;;;;;;39.72;8.57;;;;;;;33.13;36.46;99330.56;5046347;28;20021;-74
2021/06/23 08:34:50;;;;;;;45.30;8.68;;;;;;;33.08;35.80;99332.06;5042331;28;20036;-74
2021/06/23 08:37:15;;;;;;;49.05;10.60;;;;;;;33.27;35.96;99338.47;5050833;28;20494;-73
2021/06/23 08:39:41;;;;;;;40.95;9.70;;;;;;;33.22;34.51;99339.16;5049482;28;20037;-74
2021/06/23 08:42:08;;;;;;;38.50;10.57;;;;;;;33.42;35.83;99341.38;5050460;28;20016;-73
2021/06/23 08:44:34;;;;;;;37.83;7.75;;;;;;;33.43;35.27;99342.19;5051202;28;20075;-74
2021/06/23 08:47:01;;;;;;;40.50;9.40;;;;;;;33.56;34.01;99333.25;5050344;28;20479;-73
2021/06/23 08:49:28;;;;;;;37.58;8.95;;;;;;;33.62;34.42;99339.94;5051188;28;20033;-73
2021/06/23 08:51:55;;;;;;;39.53;8.48;;;;;;;33.59;34.82;99332.25;5050662;28;20044;-74
2021/06/23 08:54:20;;;;;;;56.55;11.73;;;;;;;33.72;35.24;99326.94;5049316;28;20120;-73
2021/06/23 08:56:46;;;;;;;40.17;9.38;;;;;;;33.61;33.26;99335.44;5049298;28;20561;-73
2021/06/23 08:59:11;;;;;;;43.03;8.77;;;;;;;33.80;34.85;99333.13;5045986;28;20063;-73
2021/06/23 09:01:37;;;;;;;47.40;9.93;;;;;;;33.94;33.16;99336.53;5042187;28;20083;-74
2021/06/23 09:04:11;;;;;;;42.30;9.68;;;;;;;34.13;33.27;99328.41;5049103;28;20033;-73
2021/06/23 09:06:47;;;;;;;45.42;9.63;;;;;;;34.18;32.86;99324.81;5045949;28;20025;-73
2021/06/23 09:09:19;;;;;;;46.85;8.18;;;;;;;34.04;33.00;99331.47;5048429;28;20100;-72
2021/06/23 09:11:45;;;;;;;51.22;10.90;;;;;;;34.12;32.43;99313.13;5050398;28;20124;-73
2021/06/23 09:14:16;;;;;;;52.38;10.70;;;;;;;34.28;32.18;99319.69;5050610;28;20033;-72
2021/06/23 09:17:07;;;;;;;40.55;7.97;;;;;;;34.46;31.01;99323.66;5050333;28;20037;-73
2021/06/23 09:19:44;;;;;;;41.13;8.20;;;;;;;34.42;31.13;99323.88;5050143;28;20475;-72
2021/06/23 09:22:41;;;;;;;34.28;6.82;;;;;;;34.34;31.37;99319.78;5050243;28;20033;-72
2021/06/23 09:25:13;;;;;;;34.75;7.75;;;;;;;34.44;31.34;99319.13;5038155;28;20041;-87
2021/06/23 09:27:57;;;;;;;42.40;8.18;;;;;;;34.45;30.65;99328.66;5048675;28;20083;-83
2021/06/23 09:30:26;;;;;;;58.42;8.13;;;;;;;34.64;29.95;99319.72;5050479;28;20032;-76
2021/06/23 09:33:22;;;;;;;41.55;9.65;;;;;;;34.72;30.27;99317.94;5048998;28;20620;-72
2021/06/23 09:36:06;;;;;;;42.42;7.93;;;;;;;34.67;28.71;99316.56;5030248;28;20033;-76
2021/06/23 09:38:52;;;;;;;52.20;8.00;;;;;;;34.62;29.27;99320.22;5048249;28;20033;-74
2021/06/23 09:41:17;;;;;;;45.17;7.70;;;;;;;34.75;29.50;99316.16;5052828;28;20521;-72
2021/06/23 09:43:44;;;;;;;53.38;7.45;;;;;;;34.81;29.72;99314.91;5054430;28;20112;-79
2021/06/23 09:46:23;;;;;;;43.30;8.82;;;;;;;34.69;29.57;99316.06;5054297;28;20211;-77
2021/06/23 09:48:51;;;;;;;41.80;7.72;;;;;;;34.90;30.33;99298.66;5054163;28;20045;-81
2021/06/23 09:51:21;;;;;;;45.30;8.20;;;;;;;34.88;30.56;99310.78;5049418;28;20037;-82
2021/06/23 09:53:48;;;;;;;50.63;10.30;;;;;;;34.89;30.38;99297.06;5051408;28;20479;-77
2021/06/23 09:56:25;;;;;;;48.22;8.38;;;;;;;35.15;29.81;99305.81;5053887;28;20037;-81
2021/06/23 09:58:53;;;;;;;45.08;11.20;;;;;;;35.31;29.05;99304.41;5052769;28;20331;-78
2021/06/23 10:01:18;;;;;;;37.45;7.82;;;;;;;35.48;28.24;99298.78;5052510;28;20045;-82
2021/06/23 10:04:07;;;;;;;39.97;7.85;;;;;;;35.32;29.35;99300.19;5053922;28;20398;-74
2021/06/23 10:06:45;;;;;;;43.17;8.93;;;;;;;35.44;28.97;99294.50;5053822;28;20044;-82
2021/06/23 10:09:32;;;;;;;35.28;7.95;;;;;;;35.34;28.75;99299.69;5046952;28;20033;-74
2021/06/23 10:12:06;;;;;;;37.83;8.18;;;;;;;35.37;27.79;99299.47;5046444;28;20033;-78
2021/06/23 10:14:34;;;;;;;45.75;9.82;;;;;;;35.34;27.71;99306.28;5054086;28;20036;-75
2021/06/23 10:17:03;;;;;;;27.98;7.05;;;;;;;35.38;26.93;99301.06;5052580;28;20040;-78
2021/06/23 10:19:29;;;;;;;41.97;7.60;;;;;;;35.44;26.40;99297.41;5050450;28;20559;-78
2021/06/23 10:22:05;;;;;;;39.38;8.00;;;;;;;35.39;26.77;99291.03;5044094;28;20025;-79
2021/06/23 10:24:49;;;;;;;57.78;8.13;;;;;;;35.53;27.20;99297.25;5055426;28;20056;-86
2021/06/23 10:27:25;;;;;;;39.55;6.95;;;;;;;35.25;28.01;99286.91;5050592;28;20035;-78
2021/06/23 10:29:57;;;;;;;36.88;7.45;;;;;;;35.07;27.49;99279.31;5052879;28;20086;-74
2021/06/23 10:32:23;;;;;;;41.03;8.43;;;;;;;35.24;26.96;99282.41;5051782;28;20020;-75
2021/06/23 10:34:49;;;;;;;46.75;7.82;;;;;;;35.33;27.23;99289.38;5050356;28;20037;-83
2021/06/23 10:37:16;;;;;;;35.47;9.52;;;;;;;35.57;26.94;99294.13;5053962;28;20029;-80
2021/06/23 10:39:45;;;;;;;64.32;9.75;;;;;;;35.66;27.49;99291.84;5051656;28;20127;-81
2021/06/23 10:42:12;;;;;;;50.35;7.88;;;;;;;35.68;27.28;99291.34;5051665;28;20441;-76
2021/06/23 10:44:43;;;;;;;36.28;9.02;;;;;;;35.48;27.12;99283.44;5051926;28;20411;-81
2021/06/23 10:47:26;;;;;;;34.28;8.65;;;;;;;35.48;28.49;99295.88;5048126;28;20493;-76
2021/06/23 10:49:53;;;;;;;42.95;6.32;;;;;;;35.77;27.86;99287.44;5044156;28;20033;-76
2021/06/23 10:52:22;;;;;;;46.85;9.05;;;;;;;35.62;27.35;99288.38;5047312;28;20029;-81
2021/06/23 10:54:57;;;;;;;38.70;8.15;;;;;;;35.54;27.58;99298.84;5043200;28;20029;-80
2021/06/23 10:57:33;;;;;;;35.47;8.93;;;;;;;35.85;27.26;99288.56;5046714;28;20034;-81
2021/06/23 11:00:00;;;;;;;42.67;8.55;;;;;;;36.18;27.25;99289.34;5044617;28;20029;-81
2021/06/23 11:02:39;;;;;;;49.88;9.77;;;;;;;36.02;26.75;99296.63;5052561;28;20445;-77
2021/06/23 11:05:18;;;;;;;35.75;6.28;;;;;;;35.99;26.21;99292.63;5048247;28;20040;-77
2021/06/23 11:07:45;;;;;;;36.03;7.03;;;;;;;35.99;25.83;99280.97;5047966;28;20510;-81
2021/06/23 11:12:48;;;;;;;43.22;7.75;;;;;;;36.14;27.19;99283.78;5052426;28;20037;-81
2021/06/23 11:15:19;;;;;;;35.60;6.72;;;;;;;36.23;27.61;99269.03;5050938;28;20044;-80
2021/06/23 11:17:46;;;;;;;37.15;5.97;;;;;;;36.34;25.42;99282.81;5050891;28;20035;-78
2021/06/23 11:20:21;;;;;;;51.58;8.98;;;;;;;36.34;25.57;99287.88;5051840;28;20048;-78
2021/06/23 11:22:48;;;;;;;55.92;7.95;;;;;;;35.79;27.00;99281.91;5050840;28;20465;-78
2021/06/23 11:25:24;;;;;;;32.65;7.45;;;;;;;35.71;26.73;99278.66;5052143;28;20028;-78
2021/06/23 11:28:07;;;;;;;31.70;8.48;;;;;;;35.94;27.34;99276.72;5050685;28;20024;-77
2021/06/23 11:30:34;;;;;;;43.15;7.20;;;;;;;36.10;27.11;99275.28;5051826;28;20064;-77
2021/06/23 11:33:27;;;;;;;29.17;6.30;;;;;;;36.22;26.57;99281.97;5050753;28;20020;-77
2021/06/23 11:35:53;;;;;;;38.15;9.18;;;;;;;36.15;26.03;99282.44;5047531;28;20041;-77
2021/06/23 11:38:19;;;;;;;50.13;6.00;;;;;;;36.13;26.86;99279.28;5046308;28;20114;-81
2021/06/23 11:40:44;;;;;;;29.17;5.40;;;;;;;36.19;22.93;99283.00;5047194;28;20036;-76
2021/06/23 11:43:10;;;;;;;50.92;7.30;;;;;;;36.51;21.70;99271.28;5041316;28;20034;-77
2021/06/23 11:45:35;;;;;;;46.50;8.15;;;;;;;36.65;23.05;99284.09;5051397;28;20037;-80